Agartala Airport
VEAT : now visible

Airfield :











YOU CAN JOIN US ON...

 
LOGIN :

Register | Disclaimer

   EN    FR    IT 

 









Legend :    VFR   Marginal VFR   IFR   Intensive IFR   Very Intensive IFR
Visi :
Ceiling :
>= 8 km
>= 3000ft
5 to 8 km
1000 to 3000 ft
1500m to 5 km
500 to 1000 ft
800 to 1500m
200 to 500 ft
< 800m
< 200 ft
Symbols :   Thunderstorms  Fog  Heavy snow  Heavy precipitations  Wind > 20 kt






- Airport Elevation : 46 ft
- IATA code : IXA


VEAT - Agartala

CURRENT METAR :
  • 110230Z 00000KT 0350 FG NSC 17/16 Q1016 BECMG 0800 FG

EXPIRED METARs :
  • 110200Z 00000KT 0150 FG VV/// 15/15 Q1015 BECMG 0500 FG
  • 110100Z 00000KT 0400 FG FEW010 15/14 Q1015 BECMG 0600 FG
  • 110000Z 00000KT 0050 FG VV/// 14/14 Q1014 BECMG 0350 FG

TAF TAF VEAT
Valid from the 11 at 03:00 until the 11 at 12:00 UTC


110200Z 1103/1112 00000KT 0800 FG FEW010
BECMG 1104/1106 1500 BR SCT018
BECMG 1107/1110 5000 HZ SCT020 BKN100



MET'MAP, your aeronautical weather chart ! - Copyright ORBIFLY December 2007 - Disclaimer

ORBIFLY MET'MAP TEAM :

Programming & Development : Alexandra Zaïnal
Concept & original design : Baudouin d'Aumeries
Assistance for programming : Marc-Olivier Méhu
Technical & hardware support : Manuel Goepfert

Contact : metmap@orbifly.com




SOURCES & CREDITS :

   NOAA       Earth
Advisory